createdAt,value
2023-01-08T00:00:59.107Z,100151.47
2023-01-08T00:03:25.757Z,100148.25
2023-01-08T00:05:52.386Z,100136.78
2023-01-08T00:08:18.884Z,100136.84
2023-01-08T00:10:45.736Z,100131.50
2023-01-08T00:13:12.661Z,100134.44
2023-01-08T00:15:39.218Z,100125.75
2023-01-08T00:18:06.911Z,100123.34
2023-01-08T00:20:33.726Z,100117.66
2023-01-08T00:23:00.202Z,100105.72
2023-01-08T00:25:26.745Z,100108.63
2023-01-08T00:27:53.211Z,100112.13
2023-01-08T00:30:19.639Z,100106.28
2023-01-08T00:32:46.120Z,100120.03
2023-01-08T00:35:12.605Z,100115.09
2023-01-08T00:37:39.085Z,100104.03
2023-01-08T00:40:06.319Z,100104.72
2023-01-08T00:42:32.808Z,100097.56
2023-01-08T00:44:59.230Z,100095.16
2023-01-08T00:47:25.711Z,100104.13
2023-01-08T00:49:52.213Z,100109.28
2023-01-08T00:52:18.735Z,100103.63
2023-01-08T00:54:45.199Z,100108.19
2023-01-08T00:57:11.753Z,100110.25
2023-01-08T00:59:38.220Z,100090.34
2023-01-08T01:02:04.945Z,100091.41
2023-01-08T01:04:31.481Z,100084.78
2023-01-08T01:06:57.952Z,100074.53
2023-01-08T01:09:24.421Z,100067.00
2023-01-08T01:11:50.895Z,100076.59
2023-01-08T01:14:17.364Z,100068.66
2023-01-08T01:16:44.007Z,100077.94
2023-01-08T01:19:10.650Z,100078.66
2023-01-08T01:21:37.368Z,100071.56
2023-01-08T01:24:05.843Z,100074.66
2023-01-08T01:26:33.611Z,100074.66
2023-01-08T01:29:00.866Z,100073.97
2023-01-08T01:31:30.365Z,100093.66
2023-01-08T01:33:57.234Z,100088.41
2023-01-08T01:36:24.591Z,100077.03
2023-01-08T01:38:53.456Z,100065.94
2023-01-08T01:41:40.111Z,100087.69
2023-01-08T01:44:37.619Z,100079.66
2023-01-08T01:47:37.491Z,100080.47
2023-01-08T01:50:16.050Z,100071.72
2023-01-08T01:52:52.766Z,100065.75
2023-01-08T01:55:19.615Z,100066.97
2023-01-08T01:57:52.108Z,100067.06
2023-01-08T02:00:19.597Z,100079.09
2023-01-08T02:02:46.184Z,100084.44
2023-01-08T02:05:12.849Z,100080.88
2023-01-08T02:07:49.996Z,100077.59
2023-01-08T02:10:51.584Z,100077.91
2023-01-08T02:13:26.529Z,100082.50
2023-01-08T02:16:29.348Z,100079.53
2023-01-08T02:19:03.326Z,100069.28
2023-01-08T02:21:43.941Z,100057.84
2023-01-08T02:24:24.168Z,100054.78
2023-01-08T02:26:55.028Z,100052.34
2023-01-08T02:29:25.523Z,100054.81
2023-01-08T02:31:52.348Z,100052.56
2023-01-08T02:34:18.822Z,100053.19
2023-01-08T02:36:54.414Z,100028.38
2023-01-08T02:39:48.156Z,100036.69
2023-01-08T02:42:45.227Z,100032.88
2023-01-08T02:45:11.614Z,100022.13
2023-01-08T02:47:47.015Z,100014.25
2023-01-08T02:50:28.368Z,100014.31
2023-01-08T02:53:11.688Z,100012.66
2023-01-08T02:55:42.033Z,100007.06
2023-01-08T02:58:09.114Z,99999.28
2023-01-08T03:00:35.798Z,99990.41
2023-01-08T03:03:24.417Z,99986.75
2023-01-08T03:05:53.944Z,99986.75
2023-01-08T03:08:21.472Z,99989.66
2023-01-08T03:11:12.291Z,99978.16
2023-01-08T03:13:45.534Z,99976.72
2023-01-08T03:16:17.494Z,99974.38
2023-01-08T03:18:55.194Z,99969.53
2023-01-08T03:21:22.764Z,99972.13
2023-01-08T03:23:50.770Z,99962.03
2023-01-08T03:26:24.412Z,99961.66
2023-01-08T03:28:54.647Z,99957.19
2023-01-08T03:31:24.665Z,99962.88
2023-01-08T03:33:51.533Z,99958.16
2023-01-08T03:36:23.687Z,99965.63
2023-01-08T03:39:15.363Z,99956.19
2023-01-08T03:41:42.270Z,99962.06
2023-01-08T03:44:08.930Z,99948.63
2023-01-08T03:46:44.414Z,99943.66
2023-01-08T03:49:11.836Z,99951.50
2023-01-08T03:51:42.797Z,99948.22
2023-01-08T03:54:13.671Z,99960.66
2023-01-08T03:56:40.109Z,99953.56
2023-01-08T03:59:06.583Z,99953.91
2023-01-08T04:01:33.183Z,99958.03
2023-01-08T04:03:59.736Z,99956.38
2023-01-08T04:06:26.216Z,99937.19
2023-01-08T04:08:52.707Z,99932.00
2023-01-08T04:11:20.254Z,99932.50
2023-01-08T04:13:46.707Z,99940.88
2023-01-08T04:16:13.249Z,99937.25
2023-01-08T04:18:39.803Z,99935.00
2023-01-08T04:21:06.326Z,99935.28
2023-01-08T04:23:32.778Z,99935.69
2023-01-08T04:25:59.360Z,99938.06
2023-01-08T04:28:25.866Z,99935.06
2023-01-08T04:30:52.392Z,99929.72
2023-01-08T04:33:18.904Z,99931.78
2023-01-08T04:35:45.367Z,99927.88
2023-01-08T04:38:11.822Z,99919.72
2023-01-08T04:40:38.268Z,99917.00
2023-01-08T04:43:04.774Z,99914.66
2023-01-08T04:45:31.216Z,99918.97
2023-01-08T04:47:58.880Z,99917.00
2023-01-08T04:50:26.343Z,99917.50
2023-01-08T04:52:53.313Z,99910.38
2023-01-08T04:55:20.367Z,99910.19
2023-01-08T04:57:47.874Z,99906.41
2023-01-08T05:00:14.810Z,99900.72
2023-01-08T05:02:41.483Z,99902.56
2023-01-08T05:05:08.162Z,99896.59
2023-01-08T05:07:34.644Z,99887.78
2023-01-08T05:10:01.077Z,99882.19
2023-01-08T05:12:27.548Z,99888.28
2023-01-08T05:14:54.009Z,99893.19
2023-01-08T05:17:20.433Z,99893.19
2023-01-08T05:19:46.877Z,99893.13
2023-01-08T05:22:13.397Z,99898.53
2023-01-08T05:24:39.826Z,99902.63
2023-01-08T05:27:06.390Z,99902.63
2023-01-08T05:29:32.817Z,99908.25
2023-01-08T05:31:59.327Z,99903.97
2023-01-08T05:34:25.859Z,99903.84
2023-01-08T05:36:52.409Z,99897.16
2023-01-08T05:39:18.981Z,99886.66
2023-01-08T05:41:45.458Z,99890.06
2023-01-08T05:44:11.949Z,99890.97
2023-01-08T05:46:38.465Z,99881.31
2023-01-08T05:49:05.003Z,99877.25
2023-01-08T05:51:31.440Z,99879.47
2023-01-08T05:53:57.947Z,99886.84
2023-01-08T05:56:24.408Z,99885.28
2023-01-08T05:58:54.732Z,99881.19
2023-01-08T06:01:21.904Z,99876.22
2023-01-08T06:03:48.473Z,99887.78
2023-01-08T06:06:16.635Z,99884.53
2023-01-08T06:08:43.108Z,99889.97
2023-01-08T06:11:11.939Z,99889.13
2023-01-08T06:13:42.652Z,99889.59
2023-01-08T06:16:09.582Z,99891.63
2023-01-08T06:18:36.678Z,99893.66
2023-01-08T06:21:04.501Z,99886.69
2023-01-08T06:23:31.867Z,99893.72
2023-01-08T06:26:00.663Z,99895.66
2023-01-08T06:28:27.337Z,99893.19
2023-01-08T06:30:53.875Z,99879.31
2023-01-08T06:33:21.629Z,99876.63
2023-01-08T06:35:48.351Z,99893.88
2023-01-08T06:38:14.963Z,99882.66
2023-01-08T06:40:41.456Z,99891.50
2023-01-08T06:43:07.898Z,99885.56
2023-01-08T06:45:34.355Z,99889.41
2023-01-08T06:48:05.586Z,99888.19
2023-01-08T06:50:33.442Z,99894.47
2023-01-08T06:53:00.337Z,99890.91
2023-01-08T06:55:27.373Z,99880.03
2023-01-08T06:57:55.252Z,99886.88
2023-01-08T07:00:23.758Z,99887.00
2023-01-08T07:02:51.130Z,99900.03
2023-01-08T07:05:17.970Z,99910.75
2023-01-08T07:07:45.017Z,99957.19
2023-01-08T07:10:11.787Z,99956.44
2023-01-08T07:12:38.264Z,99957.34
2023-01-08T07:15:05.134Z,99962.94
2023-01-08T07:17:34.799Z,99967.25
2023-01-08T07:20:01.277Z,99957.84
2023-01-08T07:22:28.223Z,99955.06
2023-01-08T07:24:55.060Z,99965.22
2023-01-08T07:27:21.608Z,99960.41
2023-01-08T07:29:48.041Z,99964.06
2023-01-08T07:32:14.533Z,99966.03
2023-01-08T07:34:41.021Z,99965.38
2023-01-08T07:37:07.457Z,99966.91
2023-01-08T07:39:34.172Z,99967.03
2023-01-08T07:42:00.599Z,99961.22
2023-01-08T07:44:27.033Z,99954.88
2023-01-08T07:46:53.609Z,99954.56
2023-01-08T07:49:20.112Z,99969.59
2023-01-08T07:51:49.410Z,99963.34
2023-01-08T07:54:15.891Z,99962.47
2023-01-08T07:56:42.354Z,99961.78
2023-01-08T07:59:08.889Z,99961.00
2023-01-08T08:01:35.384Z,99968.13
2023-01-08T08:04:01.882Z,99969.69
2023-01-08T08:06:28.365Z,99971.94
2023-01-08T08:08:57.220Z,99965.03
2023-01-08T08:11:23.664Z,99962.94
2023-01-08T08:13:52.642Z,99963.34
2023-01-08T08:16:20.051Z,99952.59
2023-01-08T08:18:46.593Z,99938.78
2023-01-08T08:21:13.127Z,99935.66
2023-01-08T08:23:39.636Z,99933.25
2023-01-08T08:26:06.183Z,99937.97
2023-01-08T08:28:32.646Z,99942.38
2023-01-08T08:30:59.291Z,99945.09
2023-01-08T08:33:25.823Z,99942.38
2023-01-08T08:35:52.363Z,99937.59
2023-01-08T08:38:19.035Z,99944.41
2023-01-08T08:40:45.543Z,99944.00
2023-01-08T08:43:12.105Z,99949.53
2023-01-08T08:45:38.619Z,99944.50
2023-01-08T08:48:08.769Z,99940.84
2023-01-08T08:50:35.651Z,99944.13
2023-01-08T08:53:03.840Z,99933.53
2023-01-08T08:55:31.073Z,99935.13
2023-01-08T08:58:10.725Z,99948.47
2023-01-08T09:00:41.956Z,99948.16
2023-01-08T09:03:13.818Z,99931.94
2023-01-08T09:05:40.334Z,99937.81
2023-01-08T09:08:06.904Z,99923.94
2023-01-08T09:10:33.369Z,99915.06
2023-01-08T09:12:59.819Z,99919.50
2023-01-08T09:15:26.316Z,99919.44
2023-01-08T09:17:54.606Z,99922.97
2023-01-08T09:20:21.832Z,99916.94
2023-01-08T09:22:48.395Z,99921.97
2023-01-08T09:25:15.193Z,99926.34
2023-01-08T09:27:41.658Z,99922.81
2023-01-08T09:30:08.895Z,99918.59
2023-01-08T09:32:35.365Z,99913.78
2023-01-08T09:35:01.823Z,99915.53
2023-01-08T09:37:28.331Z,99921.06
2023-01-08T09:40:02.167Z,99909.47
2023-01-08T09:42:30.978Z,99911.81
2023-01-08T09:45:00.144Z,99913.25
2023-01-08T09:47:37.653Z,99914.56
2023-01-08T09:50:08.073Z,99915.75
2023-01-08T09:52:34.639Z,99902.38
2023-01-08T09:55:01.430Z,99896.78
2023-01-08T09:57:29.029Z,99903.22
2023-01-08T09:59:55.619Z,99897.75
2023-01-08T10:02:24.795Z,99899.09
2023-01-08T10:05:00.208Z,99900.81
2023-01-08T10:07:30.391Z,99893.34
2023-01-08T10:09:56.961Z,99893.72
2023-01-08T10:12:29.866Z,99883.59
2023-01-08T10:15:01.476Z,99886.13
2023-01-08T10:17:30.713Z,99887.00
2023-01-08T10:19:57.222Z,99864.38
2023-01-08T10:22:27.302Z,99862.06
2023-01-08T10:25:03.164Z,99871.09
2023-01-08T10:27:29.594Z,99857.38
2023-01-08T10:30:05.328Z,99873.22
2023-01-08T10:32:36.719Z,99857.22
2023-01-08T10:35:05.774Z,99850.38
2023-01-08T10:37:42.598Z,99854.34
2023-01-08T10:40:36.722Z,99842.25
2023-01-08T10:43:29.081Z,99835.09
2023-01-08T10:45:57.177Z,99844.25
2023-01-08T10:48:31.332Z,99830.31
2023-01-08T10:51:18.019Z,99825.19
2023-01-08T10:53:44.803Z,99813.28
2023-01-08T10:56:19.104Z,99808.31
2023-01-08T10:58:45.617Z,99807.00
2023-01-08T11:01:16.081Z,99810.56
2023-01-08T11:03:43.015Z,99804.22
2023-01-08T11:06:17.735Z,99804.03
2023-01-08T11:08:52.970Z,99789.44
2023-01-08T11:11:19.967Z,99800.25
2023-01-08T11:13:56.436Z,99792.38
2023-01-08T11:16:30.292Z,99783.53
2023-01-08T11:18:56.986Z,99784.56
2023-01-08T11:21:26.603Z,99777.16
2023-01-08T11:24:05.280Z,99779.16
2023-01-08T11:26:34.604Z,99770.63
2023-01-08T11:29:24.508Z,99772.28
2023-01-08T11:32:10.774Z,99772.41
2023-01-08T11:34:49.828Z,99762.09
2023-01-08T11:37:27.029Z,99760.44
2023-01-08T11:39:54.559Z,99766.06
2023-01-08T11:42:21.242Z,99756.69
2023-01-08T11:45:09.313Z,99747.75
2023-01-08T11:47:41.668Z,99737.84
2023-01-08T11:50:26.532Z,99731.53
2023-01-08T11:53:19.225Z,99727.41
2023-01-08T11:56:17.855Z,99722.31
2023-01-08T11:59:02.978Z,99716.34
2023-01-08T12:01:51.005Z,99706.16
2023-01-08T12:04:35.699Z,99700.22
2023-01-08T12:07:13.324Z,99694.31
2023-01-08T12:09:43.535Z,99679.84
2023-01-08T12:12:18.177Z,99690.13
2023-01-08T12:14:51.363Z,99685.59
2023-01-08T12:17:43.468Z,99678.66
2023-01-08T12:20:31.444Z,99669.00
2023-01-08T12:23:23.575Z,99673.81
2023-01-08T12:26:19.497Z,99658.63
2023-01-08T12:29:12.046Z,99657.63
2023-01-08T12:32:05.683Z,99651.41
2023-01-08T12:34:49.336Z,99664.69
2023-01-08T12:37:27.195Z,99663.78
2023-01-08T12:40:04.222Z,99676.44
2023-01-08T12:42:32.393Z,99745.47
2023-01-08T12:45:01.849Z,99742.19
2023-01-08T12:47:34.003Z,99743.38
2023-01-08T12:50:09.586Z,99729.03
2023-01-08T12:52:48.188Z,99712.34
2023-01-08T12:55:30.327Z,99700.91
2023-01-08T12:58:16.965Z,99692.22
2023-01-08T13:00:56.518Z,99697.13
2023-01-08T13:03:27.182Z,99684.56
2023-01-08T13:06:15.488Z,99689.97
2023-01-08T13:08:48.413Z,99673.66
2023-01-08T13:11:25.828Z,99672.16
2023-01-08T13:14:10.117Z,99673.97
2023-01-08T13:16:41.743Z,99672.13
2023-01-08T13:19:26.671Z,99677.47
2023-01-08T13:21:58.628Z,99663.78
2023-01-08T13:24:37.364Z,99661.16
2023-01-08T13:27:19.156Z,99674.53
2023-01-08T13:29:46.710Z,99663.31
2023-01-08T13:32:35.035Z,99657.25
2023-01-08T13:35:16.978Z,99642.50
2023-01-08T13:37:43.453Z,99652.22
2023-01-08T13:40:44.129Z,99644.63
2023-01-08T13:43:40.084Z,99639.00
2023-01-08T13:46:15.276Z,99641.47
2023-01-08T13:48:49.697Z,99630.25
2023-01-08T13:51:30.433Z,99633.38
2023-01-08T13:54:04.608Z,99628.41
2023-01-08T13:56:31.735Z,99619.22
2023-01-08T13:58:58.463Z,99620.03
2023-01-08T14:01:25.030Z,99608.56
2023-01-08T14:03:51.555Z,99612.00
2023-01-08T14:06:23.585Z,99598.84
2023-01-08T14:08:58.388Z,99604.16
2023-01-08T14:11:33.152Z,99600.59
2023-01-08T14:13:59.755Z,99602.41
2023-01-08T14:16:26.263Z,99585.97
2023-01-08T14:18:58.085Z,99604.81
2023-01-08T14:21:25.055Z,99590.28
2023-01-08T14:23:54.055Z,99595.94
2023-01-08T14:26:35.596Z,99593.78
2023-01-08T14:29:04.872Z,99588.16
2023-01-08T14:31:31.380Z,99580.66
2023-01-08T14:33:59.916Z,99583.91
2023-01-08T14:36:27.094Z,99577.44
2023-01-08T14:38:53.966Z,99576.56
2023-01-08T14:41:52.943Z,99574.97
2023-01-08T14:44:29.085Z,99573.44
2023-01-08T14:47:03.421Z,99572.72
2023-01-08T14:49:34.224Z,99565.81
2023-01-08T14:52:02.664Z,99563.50
2023-01-08T14:54:35.899Z,99560.84
2023-01-08T14:57:03.247Z,99552.09
2023-01-08T14:59:37.795Z,99556.81
2023-01-08T15:02:07.916Z,99563.94
2023-01-08T15:04:34.468Z,99554.06
2023-01-08T15:07:25.774Z,99565.59
2023-01-08T15:09:56.837Z,99560.22
2023-01-08T15:12:32.302Z,99555.00
2023-01-08T15:15:12.593Z,99551.72
2023-01-08T15:17:40.387Z,99548.09
2023-01-08T15:20:16.694Z,99547.41
2023-01-08T15:22:45.025Z,99549.38
2023-01-08T15:25:25.915Z,99528.56
2023-01-08T15:28:04.129Z,99554.59
2023-01-08T15:30:43.824Z,99543.94
2023-01-08T15:33:25.022Z,99539.72
2023-01-08T15:35:51.980Z,99538.25
2023-01-08T15:38:21.128Z,99536.25
2023-01-08T15:40:48.400Z,99530.53
2023-01-08T15:43:17.032Z,99531.91
2023-01-08T15:45:46.064Z,99537.47
2023-01-08T15:48:12.925Z,99538.75
2023-01-08T15:50:42.279Z,99527.75
2023-01-08T15:53:18.815Z,99533.63
2023-01-08T15:55:46.968Z,99531.38
2023-01-08T15:58:14.714Z,99520.81
2023-01-08T16:00:43.509Z,99527.22
2023-01-08T16:03:12.450Z,99530.13
2023-01-08T16:05:39.116Z,99534.81
2023-01-08T16:08:06.207Z,99535.38
2023-01-08T16:10:33.121Z,99522.59
2023-01-08T16:13:01.433Z,99515.09
2023-01-08T16:15:28.739Z,99514.31
2023-01-08T16:17:55.537Z,99522.88
2023-01-08T16:20:22.005Z,99516.50
2023-01-08T16:22:48.462Z,99521.09
2023-01-08T16:25:14.996Z,99526.69
2023-01-08T16:27:43.074Z,99523.06
2023-01-08T16:30:14.583Z,99521.00
2023-01-08T16:32:41.454Z,99528.09
2023-01-08T16:35:10.854Z,99528.81
2023-01-08T16:37:37.656Z,99531.41
2023-01-08T16:40:04.660Z,99525.59
2023-01-08T16:42:31.180Z,99522.91
2023-01-08T16:44:57.656Z,99513.38
2023-01-08T16:47:24.144Z,99507.94
2023-01-08T16:49:51.055Z,99509.56
2023-01-08T16:52:17.606Z,99508.97
2023-01-08T16:54:44.822Z,99509.44
2023-01-08T16:57:11.375Z,99510.97
2023-01-08T16:59:37.829Z,99504.59
2023-01-08T17:02:04.820Z,99502.50
2023-01-08T17:04:32.143Z,99497.56
2023-01-08T17:06:58.727Z,99503.19
2023-01-08T17:09:25.654Z,99491.75
2023-01-08T17:11:52.262Z,99502.50
2023-01-08T17:14:18.874Z,99498.03
2023-01-08T17:16:45.539Z,99494.28
2023-01-08T17:19:12.692Z,99491.44
2023-01-08T17:21:39.677Z,99494.53
2023-01-08T17:24:07.253Z,99494.63
2023-01-08T17:26:33.834Z,99487.44
2023-01-08T17:29:00.466Z,99490.75
2023-01-08T17:31:27.002Z,99493.84
2023-01-08T17:33:54.531Z,99484.78
2023-01-08T17:36:23.690Z,99482.88
2023-01-08T17:38:51.205Z,99477.06
2023-01-08T17:41:36.523Z,99474.78
2023-01-08T17:44:06.783Z,99479.13
2023-01-08T17:46:42.082Z,99465.88
2023-01-08T17:49:09.195Z,99462.34
2023-01-08T17:51:35.773Z,99466.13
2023-01-08T17:54:02.564Z,99464.22
2023-01-08T17:56:29.139Z,99453.84
2023-01-08T17:58:55.627Z,99454.44
2023-01-08T18:01:23.235Z,99457.88
2023-01-08T18:03:50.479Z,99446.28
2023-01-08T18:06:16.965Z,99450.88
2023-01-08T18:08:43.589Z,99444.66
2023-01-08T18:11:10.420Z,99452.16
2023-01-08T18:13:37.768Z,99446.38
2023-01-08T18:16:06.815Z,99452.25
2023-01-08T18:18:33.537Z,99442.75
2023-01-08T18:21:00.013Z,99436.09
2023-01-08T18:23:26.718Z,99431.84
2023-01-08T18:25:53.182Z,99422.78
2023-01-08T18:28:19.757Z,99415.50
2023-01-08T18:30:46.330Z,99427.63
2023-01-08T18:33:14.215Z,99424.22
2023-01-08T18:35:41.318Z,99410.19
2023-01-08T18:38:15.636Z,99433.25
2023-01-08T18:40:45.800Z,99419.84
2023-01-08T18:43:12.863Z,99415.22
2023-01-08T18:45:39.532Z,99421.53
2023-01-08T18:48:07.865Z,99412.88
2023-01-08T18:50:34.453Z,99411.63
2023-01-08T18:53:03.783Z,99412.75
2023-01-08T18:55:30.787Z,99398.25
2023-01-08T18:57:57.626Z,99403.72
2023-01-08T19:00:26.216Z,99392.66
2023-01-08T19:02:53.232Z,99387.97
2023-01-08T19:05:20.082Z,99389.53
2023-01-08T19:07:46.583Z,99377.56
2023-01-08T19:10:13.815Z,99370.59
2023-01-08T19:12:40.339Z,99370.06
2023-01-08T19:15:07.345Z,99371.88
2023-01-08T19:17:33.780Z,99358.63
2023-01-08T19:20:00.277Z,99368.97
2023-01-08T19:22:27.123Z,99368.50
2023-01-08T19:24:54.702Z,99360.63
2023-01-08T19:27:21.352Z,99358.28
2023-01-08T19:29:47.841Z,99346.19
2023-01-08T19:32:14.421Z,99355.34
2023-01-08T19:34:41.448Z,99348.63
2023-01-08T19:37:08.021Z,99337.50
2023-01-08T19:39:34.793Z,99338.53
2023-01-08T19:42:19.879Z,99339.28
2023-01-08T19:44:46.418Z,99330.72
2023-01-08T19:47:12.884Z,99326.59
2023-01-08T19:49:42.825Z,99319.94
2023-01-08T19:52:09.300Z,99327.91
2023-01-08T19:54:37.737Z,99319.72
2023-01-08T19:57:04.226Z,99314.09
2023-01-08T19:59:30.697Z,99316.09
2023-01-08T20:01:57.355Z,99306.59
2023-01-08T20:04:23.915Z,99305.75
2023-01-08T20:06:52.297Z,99308.06
2023-01-08T20:09:18.771Z,99294.59
2023-01-08T20:11:45.348Z,99297.66
2023-01-08T20:14:11.805Z,99294.44
2023-01-08T20:16:38.318Z,99265.66
2023-01-08T20:19:05.395Z,99300.75
2023-01-08T20:21:33.621Z,99295.81
2023-01-08T20:24:04.212Z,99294.88
2023-01-08T20:26:31.969Z,99288.31
2023-01-08T20:28:59.215Z,99284.34
2023-01-08T20:31:29.552Z,99288.47
2023-01-08T20:33:57.581Z,99290.03
2023-01-08T20:36:27.352Z,99288.31
2023-01-08T20:38:56.721Z,99270.84
2023-01-08T20:41:24.402Z,99273.78
2023-01-08T20:43:50.888Z,99267.31
2023-01-08T20:46:17.341Z,99275.09
2023-01-08T20:48:47.775Z,99264.44
2023-01-08T20:51:15.611Z,99272.06
2023-01-08T20:53:42.372Z,99256.78
2023-01-08T20:56:13.146Z,99251.06
2023-01-08T20:58:42.183Z,99250.28
2023-01-08T21:01:21.948Z,99236.78
2023-01-08T21:03:50.157Z,99239.81
2023-01-08T21:06:19.650Z,99231.63
2023-01-08T21:08:48.072Z,99236.25
2023-01-08T21:11:15.521Z,99221.84
2023-01-08T21:13:42.352Z,99224.44
2023-01-08T21:16:13.921Z,99214.66
2023-01-08T21:18:43.939Z,99216.66
2023-01-08T21:21:12.011Z,99215.69
2023-01-08T21:23:38.497Z,99202.19
2023-01-08T21:26:09.693Z,99191.50
2023-01-08T21:28:37.262Z,99203.06
2023-01-08T21:31:16.531Z,99181.28
2023-01-08T21:33:44.152Z,99193.22
2023-01-08T21:36:19.118Z,99184.91
2023-01-08T21:38:45.859Z,99184.22
2023-01-08T21:41:35.335Z,99177.28
2023-01-08T21:44:21.870Z,99186.25
2023-01-08T21:46:48.841Z,99162.56
2023-01-08T21:49:15.474Z,99158.50
2023-01-08T21:52:00.806Z,99148.06
2023-01-08T21:54:27.238Z,99143.34
2023-01-08T21:56:53.695Z,99132.94
2023-01-08T21:59:20.307Z,99132.66
2023-01-08T22:01:46.905Z,99131.28
2023-01-08T22:04:13.688Z,99127.22
2023-01-08T22:06:42.769Z,99124.22
2023-01-08T22:09:09.788Z,99123.09
2023-01-08T22:11:36.269Z,99115.72
2023-01-08T22:14:02.706Z,99113.38
2023-01-08T22:16:29.203Z,99103.53
2023-01-08T22:18:56.989Z,99094.88
2023-01-08T22:21:23.478Z,99101.09
2023-01-08T22:23:49.935Z,99094.09
2023-01-08T22:26:16.423Z,99096.56
2023-01-08T22:28:45.860Z,99099.31
2023-01-08T22:31:13.906Z,99089.00
2023-01-08T22:33:40.922Z,99085.81
2023-01-08T22:36:10.843Z,99093.22
2023-01-08T22:38:37.892Z,99091.44
2023-01-08T22:41:08.477Z,99081.41
2023-01-08T22:43:34.955Z,99080.72
2023-01-08T22:46:01.450Z,99079.06
2023-01-08T22:48:27.992Z,99067.66
2023-01-08T22:50:54.696Z,99065.75
2023-01-08T22:53:21.546Z,99062.56
2023-01-08T22:55:48.361Z,99068.00
2023-01-08T22:58:16.246Z,99059.13
2023-01-08T23:00:43.636Z,99065.88
2023-01-08T23:03:10.587Z,99069.38
2023-01-08T23:05:37.287Z,99062.63
2023-01-08T23:08:04.479Z,99066.09
2023-01-08T23:10:31.216Z,99061.94
2023-01-08T23:12:57.775Z,99071.91
2023-01-08T23:15:24.718Z,99059.38
2023-01-08T23:17:52.407Z,99057.00
2023-01-08T23:20:19.691Z,99059.88
2023-01-08T23:22:47.743Z,99048.94
2023-01-08T23:25:14.979Z,99054.22
2023-01-08T23:27:41.481Z,99055.88
2023-01-08T23:30:08.877Z,99061.88
2023-01-08T23:32:35.342Z,99047.78
2023-01-08T23:35:01.804Z,99042.78
2023-01-08T23:37:28.401Z,99044.53
2023-01-08T23:39:54.989Z,99058.00
2023-01-08T23:42:21.493Z,99050.06
2023-01-08T23:44:49.534Z,99051.88
2023-01-08T23:47:16.071Z,99061.19
2023-01-08T23:49:42.532Z,99058.19
2023-01-08T23:52:10.111Z,99055.84
2023-01-08T23:54:36.697Z,99053.50
2023-01-08T23:57:06.053Z,99059.13
2023-01-08T23:59:32.975Z,99051.41
